Mac Dill Air Force Base
KMCF : rendu visible

Aérodrome :











RETROUVEZ-NOUS SUR...

 
LOGIN :

S'inscrire | Disclaimer

   EN    FR    IT 

 









Légende :    VFR   VFR Marginal   IFR   IFR Intensif   IFR Très Intensif
Visi : 
Plafond : 
>= 8 km
>= 3000ft
5 à 8 km
1000 à 3000 ft
1500m à 5 km
500 à 1000 ft
800 à 1500m
200 à 500 ft
< 800m
< 200 ft
Symboles :   Orages  Brouillard  Fortes neiges  Fortes précipitations  Vent > 20 kt






- Altitude de l'aérodrome : 14 ft


KMCF - Mac Dill Air Force Base

DERNIER METAR :
  • 250456Z AUTO 00000KT 10SM BKN019 18/17 A3004 RMK AO2 BKN V SCT CIG 018 RWY04 SLP176 T01810169 402410151 FZRANO $

METARs EXPIRÉS :
  • 250356Z AUTO 00000KT 10SM OVC007 18/17 A3006 RMK AO2 OVC V BKN CIG 006 RWY04 SLP182 T01800168 FZRANO $
  • 250256Z AUTO 21005KT 10SM CLR 17/16 A3005 RMK AO2 SLP179 T01710156 52012 FZRANO $

TAF AMD TAF KMCF
Valide du 25 à 04h jusqu'au 26 à 07h UTC


250408Z 2504/2607 22006KT 9999 SCT006 BKN012 QNH3002INS
TEMPO 2504/2508 VRB06KT BKN006 OVC015
BECMG 2508/2509 33009KT 9999 SCT015 QNH3002INS
BECMG 2514/2515 34010G15KT 9999 SKC QNH3004INS TX21/2520Z TN11/2601Z



MET'MAP, la Météo Aéronautique d'un coup d'oeil ! - Copyright ORBIFLY Décembre 2007 - Disclaimer

ORBIFLY MET'MAP TEAM :

Programmation & Développement : Alexandra Zaïnal
Sur une idée originale de : Baudouin d'Aumeries
Assistance à la programmation : Marc-Olivier Méhu
Soutien technique & logistique : Manuel Goepfert

Contact : metmap@orbifly.com




SOURCES & CREDITS :

   NOAA       Earth
Advisory